createdAt,value
2023-04-24T00:00:26.069Z,3.15
2023-04-24T00:02:58.300Z,3.88
2023-04-24T00:05:26.282Z,3.90
2023-04-24T00:07:53.747Z,3.85
2023-04-24T00:10:21.123Z,4.43
2023-04-24T00:12:48.711Z,4.30
2023-04-24T00:15:16.045Z,3.00
2023-04-24T00:17:43.485Z,3.65
2023-04-24T00:20:11.817Z,3.15
2023-04-24T00:22:39.289Z,3.05
2023-04-24T00:25:07.084Z,3.03
2023-04-24T00:27:36.077Z,3.42
2023-04-24T00:30:03.926Z,3.65
2023-04-24T00:32:31.728Z,3.50
2023-04-24T00:34:59.017Z,2.30
2023-04-24T00:37:26.392Z,2.50
2023-04-24T00:39:53.709Z,2.15
2023-04-24T00:42:21.434Z,3.38
2023-04-24T00:44:49.380Z,2.78
2023-04-24T00:47:17.296Z,2.45
2023-04-24T00:49:45.038Z,1.90
2023-04-24T00:52:13.483Z,2.83
2023-04-24T00:54:41.535Z,3.13
2023-04-24T00:57:08.974Z,1.80
2023-04-24T00:59:37.535Z,2.15
2023-04-24T01:02:05.012Z,2.15
2023-04-24T01:04:32.580Z,1.98
2023-04-24T01:06:59.963Z,2.17
2023-04-24T01:09:27.707Z,2.17
2023-04-24T01:11:55.393Z,2.65
2023-04-24T01:14:23.404Z,2.08
2023-04-24T01:16:50.676Z,2.15
2023-04-24T01:19:19.883Z,2.35
2023-04-24T01:21:51.597Z,2.25
2023-04-24T01:24:20.435Z,2.15
2023-04-24T01:26:48.172Z,1.58
2023-04-24T01:29:15.579Z,1.92
2023-04-24T01:31:43.781Z,2.30
2023-04-24T01:34:11.540Z,3.10
2023-04-24T01:36:39.874Z,1.65
2023-04-24T01:39:07.773Z,2.42
2023-04-24T01:41:35.634Z,2.13
2023-04-24T01:44:03.522Z,2.20
2023-04-24T01:46:32.493Z,1.90
2023-04-24T01:49:01.718Z,2.20
2023-04-24T01:51:29.067Z,1.95
2023-04-24T01:53:56.847Z,2.00
2023-04-24T01:56:24.444Z,2.75
2023-04-24T01:58:53.456Z,2.22
2023-04-24T02:01:25.993Z,2.03
2023-04-24T02:03:54.058Z,1.52
2023-04-24T02:06:21.536Z,1.98
2023-04-24T02:08:48.835Z,2.22
2023-04-24T02:11:16.068Z,2.03
2023-04-24T02:13:43.298Z,1.92
2023-04-24T02:16:10.655Z,2.55
2023-04-24T02:18:38.007Z,1.50
2023-04-24T02:21:05.458Z,1.33
2023-04-24T02:23:32.849Z,1.55
2023-04-24T02:26:00.226Z,1.58
2023-04-24T02:28:27.475Z,1.73
2023-04-24T02:30:54.770Z,1.58
2023-04-24T02:33:22.055Z,1.40
2023-04-24T02:35:49.398Z,1.50
2023-04-24T02:38:16.683Z,1.38
2023-04-24T02:40:43.945Z,1.42
2023-04-24T02:43:11.308Z,1.25
2023-04-24T02:45:39.565Z,1.33
2023-04-24T02:48:06.956Z,1.67
2023-04-24T02:50:34.637Z,1.30
2023-04-24T02:53:01.942Z,1.38
2023-04-24T02:55:29.248Z,1.10
2023-04-24T02:57:56.585Z,1.40
2023-04-24T03:00:23.985Z,1.88
2023-04-24T03:02:51.635Z,1.10
2023-04-24T03:05:19.018Z,1.00
2023-04-24T03:07:47.271Z,1.58
2023-04-24T03:10:14.616Z,1.30
2023-04-24T03:12:42.031Z,1.23
2023-04-24T03:15:09.889Z,0.93
2023-04-24T03:17:38.077Z,1.02
2023-04-24T03:20:06.823Z,1.08
2023-04-24T03:22:34.755Z,0.90
2023-04-24T03:25:02.428Z,1.40
2023-04-24T03:27:29.773Z,0.80
2023-04-24T03:29:57.097Z,2.50
2023-04-24T03:32:24.628Z,1.30
2023-04-24T03:34:51.994Z,1.58
2023-04-24T03:37:19.283Z,1.20
2023-04-24T03:39:46.593Z,1.20
2023-04-24T03:42:13.870Z,1.88
2023-04-24T03:44:41.127Z,0.68
2023-04-24T03:47:08.435Z,1.50
2023-04-24T03:49:35.738Z,1.48
2023-04-24T03:52:03.119Z,1.08
2023-04-24T03:54:30.350Z,2.30
2023-04-24T03:56:57.610Z,1.45
2023-04-24T03:59:24.873Z,1.35
2023-04-24T04:01:52.313Z,1.33
2023-04-24T04:04:19.844Z,0.90
2023-04-24T04:06:47.577Z,1.27
2023-04-24T04:09:14.950Z,1.48
2023-04-24T04:11:42.207Z,2.53
2023-04-24T04:14:09.561Z,1.17
2023-04-24T04:16:37.571Z,2.22
2023-04-24T04:19:05.054Z,2.03
2023-04-24T04:21:33.102Z,1.98
2023-04-24T04:24:00.330Z,1.23
2023-04-24T04:26:28.307Z,1.60
2023-04-24T04:28:55.618Z,1.55
2023-04-24T04:31:24.292Z,2.53
2023-04-24T04:33:51.683Z,1.98
2023-04-24T04:36:18.978Z,2.20
2023-04-24T04:38:46.297Z,2.05
2023-04-24T04:41:13.601Z,1.83
2023-04-24T04:43:41.640Z,2.30
2023-04-24T04:46:09.603Z,2.78
2023-04-24T04:48:36.944Z,2.30
2023-04-24T04:51:04.379Z,3.00
2023-04-24T04:53:31.776Z,3.28
2023-04-24T04:56:00.550Z,2.47
2023-04-24T04:58:27.872Z,2.17
2023-04-24T05:00:55.139Z,3.28
2023-04-24T05:03:22.516Z,2.35
2023-04-24T05:05:50.363Z,2.72
2023-04-24T05:08:26.370Z,3.20
2023-04-24T05:10:55.822Z,2.22
2023-04-24T05:13:35.556Z,4.13
2023-04-24T05:16:07.471Z,4.40
2023-04-24T05:18:35.335Z,3.70
2023-04-24T05:21:02.649Z,3.95
2023-04-24T05:23:30.031Z,2.40
2023-04-24T05:25:57.455Z,2.90
2023-04-24T05:28:29.132Z,4.00
2023-04-24T05:30:57.135Z,5.13
2023-04-24T05:33:24.532Z,4.20
2023-04-24T05:35:52.011Z,4.00
2023-04-24T05:38:20.592Z,3.35
2023-04-24T05:40:47.989Z,3.80
2023-04-24T05:43:15.419Z,4.63
2023-04-24T05:45:42.667Z,3.88
2023-04-24T05:48:09.982Z,3.97
2023-04-24T05:50:37.401Z,3.53
2023-04-24T05:53:05.045Z,4.95
2023-04-24T05:55:33.058Z,4.53
2023-04-24T05:58:00.829Z,5.13
2023-04-24T06:00:28.326Z,4.63
2023-04-24T06:02:56.554Z,4.35
2023-04-24T06:05:24.000Z,4.53
2023-04-24T06:07:51.853Z,4.68
2023-04-24T06:10:19.200Z,5.28
2023-04-24T06:12:46.589Z,3.83
2023-04-24T06:15:14.097Z,5.80
2023-04-24T06:17:41.518Z,7.00
2023-04-24T06:20:09.386Z,3.85
2023-04-24T06:22:36.797Z,4.57
2023-04-24T06:25:04.380Z,5.95
2023-04-24T06:27:31.625Z,3.95
2023-04-24T06:29:58.850Z,3.75
2023-04-24T06:32:26.719Z,5.72
2023-04-24T06:34:54.450Z,4.35
2023-04-24T06:37:21.971Z,3.72
2023-04-24T06:39:49.440Z,5.63
2023-04-24T06:42:17.124Z,4.82
2023-04-24T06:44:44.467Z,4.07
2023-04-24T06:47:14.545Z,4.95
2023-04-24T06:49:42.743Z,3.78
2023-04-24T06:52:10.547Z,4.45
2023-04-24T06:54:37.849Z,5.90
2023-04-24T06:57:05.115Z,6.18
2023-04-24T06:59:32.573Z,9.35
2023-04-24T07:01:59.947Z,7.57
2023-04-24T07:04:27.577Z,8.23
2023-04-24T07:06:58.887Z,9.95
2023-04-24T07:09:26.906Z,5.50
2023-04-24T07:11:54.869Z,7.00
2023-04-24T07:14:22.448Z,7.13
2023-04-24T07:16:49.832Z,7.95
2023-04-24T07:19:17.108Z,15.45
2023-04-24T07:21:44.417Z,5.57
2023-04-24T07:24:12.640Z,5.65
2023-04-24T07:26:41.154Z,7.47
2023-04-24T07:29:08.884Z,5.03
2023-04-24T07:31:36.321Z,7.15
2023-04-24T07:34:03.720Z,4.57
2023-04-24T07:36:31.067Z,9.25
2023-04-24T07:38:58.416Z,5.50
2023-04-24T07:41:26.251Z,4.15
2023-04-24T07:43:54.729Z,7.70
2023-04-24T07:46:22.394Z,5.82
2023-04-24T07:48:55.801Z,6.10
2023-04-24T07:51:29.330Z,6.60
2023-04-24T07:53:56.644Z,4.32
2023-04-24T07:56:24.973Z,5.50
2023-04-24T07:58:53.113Z,4.82
2023-04-24T08:01:20.347Z,6.50
2023-04-24T08:03:47.760Z,4.15
2023-04-24T08:06:15.167Z,6.10
2023-04-24T08:08:42.430Z,6.95
2023-04-24T08:11:09.770Z,6.40
2023-04-24T08:13:37.081Z,6.70
2023-04-24T08:16:04.504Z,3.50
2023-04-24T08:18:31.918Z,5.75
2023-04-24T08:21:02.453Z,4.22
2023-04-24T08:23:30.698Z,6.47
2023-04-24T08:25:58.813Z,10.45
2023-04-24T08:28:26.884Z,6.15
2023-04-24T08:30:55.902Z,5.65
2023-04-24T08:33:26.309Z,4.75
2023-04-24T08:35:54.446Z,7.07
2023-04-24T08:38:21.817Z,11.10
2023-04-24T08:40:50.647Z,7.97
2023-04-24T08:43:18.372Z,5.35
2023-04-24T08:45:45.831Z,4.60
2023-04-24T08:48:27.274Z,2.95
2023-04-24T08:50:59.800Z,9.30
2023-04-24T08:53:28.240Z,6.50
2023-04-24T08:55:57.691Z,3.25
2023-04-24T08:58:28.086Z,9.50
2023-04-24T09:01:00.132Z,7.47
2023-04-24T09:03:29.430Z,8.05
2023-04-24T09:05:58.201Z,3.78
2023-04-24T09:08:27.272Z,8.32
2023-04-24T09:10:54.710Z,3.80
2023-04-24T09:13:22.544Z,3.58
2023-04-24T09:15:50.026Z,4.43
2023-04-24T09:18:17.986Z,4.18
2023-04-24T09:21:07.805Z,4.25
2023-04-24T09:23:35.082Z,5.00
2023-04-24T09:26:05.938Z,6.47
2023-04-24T09:28:41.459Z,4.32
2023-04-24T09:31:16.813Z,4.90
2023-04-24T09:34:02.618Z,2.55
2023-04-24T09:36:37.979Z,7.32
2023-04-24T09:39:14.668Z,3.95
2023-04-24T09:41:53.377Z,3.30
2023-04-24T09:44:22.806Z,4.70
2023-04-24T09:46:55.722Z,3.80
2023-04-24T09:49:30.902Z,2.70
2023-04-24T09:52:12.351Z,2.53
2023-04-24T09:54:40.565Z,2.60
2023-04-24T09:57:10.414Z,2.72
2023-04-24T09:59:45.466Z,3.20
2023-04-24T10:02:22.498Z,3.90
2023-04-24T10:04:57.805Z,3.55
2023-04-24T10:07:27.744Z,3.25
2023-04-24T10:09:55.746Z,2.58
2023-04-24T10:12:24.068Z,5.07
2023-04-24T10:15:14.145Z,4.05
2023-04-24T10:17:42.299Z,8.18
2023-04-24T10:20:09.961Z,7.15
2023-04-24T10:22:38.464Z,4.32
2023-04-24T10:25:07.423Z,5.47
2023-04-24T10:27:37.102Z,3.67
2023-04-24T10:30:04.860Z,8.50
2023-04-24T10:32:32.324Z,5.88
2023-04-24T10:34:59.664Z,2.10
2023-04-24T10:37:28.161Z,1.70
2023-04-24T10:39:57.062Z,4.95
2023-04-24T10:42:24.398Z,5.05
2023-04-24T10:44:51.901Z,11.98
2023-04-24T10:47:19.231Z,15.23
2023-04-24T10:49:46.752Z,16.25
2023-04-24T10:52:15.037Z,12.13
2023-04-24T10:54:46.455Z,15.68
2023-04-24T10:57:23.547Z,8.00
2023-04-24T10:59:53.181Z,13.50
2023-04-24T11:02:36.579Z,17.30
2023-04-24T11:05:07.691Z,11.38
2023-04-24T11:08:16.985Z,13.73
2023-04-24T11:10:56.048Z,19.88
2023-04-24T11:13:24.416Z,17.23
2023-04-24T11:16:14.438Z,15.73
2023-04-24T11:18:46.225Z,27.88
2023-04-24T11:21:17.371Z,16.70
2023-04-24T11:23:45.599Z,11.77
2023-04-24T11:26:33.211Z,11.50
2023-04-24T11:29:09.858Z,17.08
2023-04-24T11:31:38.309Z,12.15
2023-04-24T11:34:14.939Z,18.77
2023-04-24T11:36:45.467Z,15.93
2023-04-24T11:39:14.856Z,12.07
2023-04-24T11:41:42.234Z,9.20
2023-04-24T11:44:10.838Z,9.35
2023-04-24T11:46:39.066Z,9.93
2023-04-24T11:49:07.468Z,12.02
2023-04-24T11:51:47.809Z,5.72
2023-04-24T11:54:20.395Z,9.30
2023-04-24T11:56:48.982Z,7.35
2023-04-24T11:59:16.252Z,8.45
2023-04-24T12:01:47.643Z,10.27
2023-04-24T12:04:17.224Z,7.25
2023-04-24T12:07:04.555Z,9.07
2023-04-24T12:09:47.622Z,4.93
2023-04-24T12:12:18.764Z,8.63
2023-04-24T12:14:50.817Z,9.57
2023-04-24T12:17:18.713Z,4.90
2023-04-24T12:19:50.032Z,6.20
2023-04-24T12:22:17.420Z,4.97
2023-04-24T12:25:04.900Z,8.57
2023-04-24T12:27:34.007Z,6.18
2023-04-24T12:30:03.749Z,4.72
2023-04-24T12:32:31.162Z,5.47
2023-04-24T12:34:59.300Z,6.65
2023-04-24T12:37:27.779Z,6.70
2023-04-24T12:40:14.304Z,4.70
2023-04-24T12:42:49.749Z,4.05
2023-04-24T12:45:18.905Z,3.00
2023-04-24T12:47:47.478Z,6.32
2023-04-24T12:50:16.488Z,6.25
2023-04-24T12:52:46.283Z,8.48
2023-04-24T12:55:13.635Z,7.00
2023-04-24T12:57:41.606Z,6.05
2023-04-24T13:00:09.824Z,4.05
2023-04-24T13:02:37.705Z,6.80
2023-04-24T13:05:05.720Z,6.63
2023-04-24T13:07:32.992Z,4.47
2023-04-24T13:10:00.315Z,4.25
2023-04-24T13:12:27.749Z,5.18
2023-04-24T13:14:55.564Z,4.68
2023-04-24T13:17:23.506Z,3.80
2023-04-24T13:19:52.558Z,4.95
2023-04-24T13:22:20.070Z,5.03
2023-04-24T13:24:49.480Z,3.70
2023-04-24T13:27:17.829Z,7.93
2023-04-24T13:29:45.677Z,8.20
2023-04-24T13:32:13.036Z,5.55
2023-04-24T13:34:40.491Z,3.67
2023-04-24T13:37:09.125Z,6.32
2023-04-24T13:39:36.663Z,6.00
2023-04-24T13:42:05.213Z,4.38
2023-04-24T13:44:32.957Z,4.40
2023-04-24T13:47:00.802Z,4.32
2023-04-24T13:49:28.558Z,4.82
2023-04-24T13:51:59.261Z,5.70
2023-04-24T13:54:26.967Z,2.45
2023-04-24T13:56:54.567Z,4.78
2023-04-24T13:59:22.772Z,6.18
2023-04-24T14:01:50.420Z,4.85
2023-04-24T14:04:18.068Z,5.18
2023-04-24T14:06:45.795Z,6.43
2023-04-24T14:09:13.847Z,6.55
2023-04-24T14:11:41.689Z,4.30
2023-04-24T14:14:09.254Z,6.50
2023-04-24T14:16:36.720Z,5.95
2023-04-24T14:19:04.159Z,5.93
2023-04-24T14:21:31.533Z,3.78
2023-04-24T14:23:58.817Z,4.40
2023-04-24T14:26:26.210Z,4.70
2023-04-24T14:29:01.118Z,4.13
2023-04-24T14:31:34.902Z,3.00
2023-04-24T14:34:02.180Z,6.75
2023-04-24T14:36:29.477Z,6.55
2023-04-24T14:38:56.793Z,5.07
2023-04-24T14:41:24.094Z,5.28
2023-04-24T14:43:51.578Z,8.95
2023-04-24T14:46:18.968Z,7.03
2023-04-24T14:48:46.429Z,5.68
2023-04-24T14:51:13.781Z,8.77
2023-04-24T14:53:41.657Z,3.45
2023-04-24T14:56:09.035Z,13.57
2023-04-24T14:58:36.429Z,5.57
2023-04-24T15:01:03.777Z,9.93
2023-04-24T15:03:32.233Z,9.43
2023-04-24T15:05:59.783Z,5.30
2023-04-24T15:08:27.085Z,6.20
2023-04-24T15:10:54.555Z,6.50
2023-04-24T15:13:22.370Z,4.78
2023-04-24T15:15:49.753Z,4.93
2023-04-24T15:18:17.035Z,4.82
2023-04-24T15:20:44.379Z,3.90
2023-04-24T15:23:11.947Z,5.32
2023-04-24T15:25:39.452Z,3.63
2023-04-24T15:28:07.179Z,5.82
2023-04-24T15:30:34.540Z,5.38
2023-04-24T15:33:02.801Z,4.53
2023-04-24T15:35:30.446Z,3.55
2023-04-24T15:37:57.812Z,3.85
2023-04-24T15:40:25.167Z,6.68
2023-04-24T15:42:52.558Z,7.20
2023-04-24T15:45:19.927Z,6.50
2023-04-24T15:47:47.703Z,4.72
2023-04-24T15:50:17.042Z,9.95
2023-04-24T15:52:45.281Z,8.07
2023-04-24T15:55:12.874Z,8.25
2023-04-24T15:57:40.841Z,13.35
2023-04-24T16:00:10.525Z,17.48
2023-04-24T16:02:38.093Z,17.55
2023-04-24T16:05:07.725Z,15.93
2023-04-24T16:07:36.018Z,15.65
2023-04-24T16:10:03.404Z,15.35
2023-04-24T16:12:30.988Z,16.00
2023-04-24T16:14:58.320Z,15.23
2023-04-24T16:17:26.029Z,17.08
2023-04-24T16:19:53.424Z,18.30
2023-04-24T16:22:20.738Z,19.40
2023-04-24T16:24:48.108Z,14.57
2023-04-24T16:27:16.069Z,12.02
2023-04-24T16:29:43.436Z,13.68
2023-04-24T16:32:11.206Z,17.15
2023-04-24T16:34:38.573Z,17.95
2023-04-24T16:37:06.618Z,15.02
2023-04-24T16:39:34.405Z,19.38
2023-04-24T16:42:01.900Z,16.55
2023-04-24T16:44:29.316Z,22.05
2023-04-24T16:46:56.919Z,19.33
2023-04-24T16:49:24.580Z,14.30
2023-04-24T16:51:51.876Z,17.48
2023-04-24T16:54:19.399Z,13.02
2023-04-24T16:56:46.756Z,14.68
2023-04-24T16:59:14.180Z,18.60
2023-04-24T17:01:41.480Z,12.55
2023-04-24T17:04:08.931Z,15.55
2023-04-24T17:06:36.277Z,12.88
2023-04-24T17:09:04.672Z,9.77
2023-04-24T17:11:32.045Z,9.27
2023-04-24T17:14:00.018Z,8.70
2023-04-24T17:16:27.676Z,8.25
2023-04-24T17:18:55.011Z,10.45
2023-04-24T17:21:22.384Z,11.27
2023-04-24T17:23:49.765Z,10.07
2023-04-24T17:26:17.258Z,11.32
2023-04-24T17:28:44.625Z,6.78
2023-04-24T17:31:12.058Z,8.05
2023-04-24T17:33:39.635Z,9.40
2023-04-24T17:36:07.419Z,8.63
2023-04-24T17:38:35.083Z,7.57
2023-04-24T17:41:02.457Z,6.78
2023-04-24T17:43:29.803Z,12.75
2023-04-24T17:45:57.916Z,7.75
2023-04-24T17:48:25.718Z,6.13
2023-04-24T17:50:53.818Z,7.50
2023-04-24T17:53:24.421Z,6.72
2023-04-24T17:55:51.877Z,6.20
2023-04-24T17:58:19.351Z,7.20
2023-04-24T18:00:46.982Z,8.45
2023-04-24T18:03:14.463Z,8.15
2023-04-24T18:05:41.911Z,5.28
2023-04-24T18:08:09.228Z,5.57
2023-04-24T18:10:36.643Z,6.35
2023-04-24T18:13:04.895Z,5.65
2023-04-24T18:15:32.556Z,6.03
2023-04-24T18:18:00.404Z,6.65
2023-04-24T18:20:27.829Z,8.77
2023-04-24T18:22:55.250Z,5.85
2023-04-24T18:25:26.986Z,6.03
2023-04-24T18:27:55.937Z,5.97
2023-04-24T18:30:24.479Z,5.70
2023-04-24T18:32:53.709Z,6.65
2023-04-24T18:35:22.189Z,5.47
2023-04-24T18:37:50.628Z,3.97
2023-04-24T18:40:18.255Z,7.05
2023-04-24T18:42:46.025Z,8.40
2023-04-24T18:45:15.241Z,9.73
2023-04-24T18:47:43.688Z,12.07
2023-04-24T18:50:11.801Z,8.55
2023-04-24T18:52:39.283Z,9.57
2023-04-24T18:55:07.169Z,14.82
2023-04-24T18:57:34.800Z,10.45
2023-04-24T19:00:02.394Z,13.30
2023-04-24T19:02:29.916Z,12.93
2023-04-24T19:04:57.540Z,14.90
2023-04-24T19:07:24.888Z,13.85
2023-04-24T19:09:52.292Z,14.27
2023-04-24T19:12:21.606Z,15.73
2023-04-24T19:14:51.559Z,17.15
2023-04-24T19:17:23.585Z,16.52
2023-04-24T19:19:51.369Z,18.17
2023-04-24T19:22:20.689Z,19.73
2023-04-24T19:24:48.239Z,20.05
2023-04-24T19:27:15.651Z,22.00
2023-04-24T19:29:43.073Z,22.20
2023-04-24T19:32:10.895Z,19.92
2023-04-24T19:34:40.420Z,22.58
2023-04-24T19:37:08.363Z,25.95
2023-04-24T19:39:35.871Z,18.98
2023-04-24T19:42:07.227Z,17.63
2023-04-24T19:44:35.026Z,18.17
2023-04-24T19:47:02.415Z,18.45
2023-04-24T19:49:30.167Z,23.48
2023-04-24T19:51:57.424Z,25.33
2023-04-24T19:54:25.233Z,18.65
2023-04-24T19:56:52.524Z,19.88
2023-04-24T19:59:19.824Z,23.73
2023-04-24T20:01:47.257Z,28.73
2023-04-24T20:04:14.763Z,19.30
2023-04-24T20:06:42.178Z,20.98
2023-04-24T20:09:10.664Z,22.27
2023-04-24T20:11:38.014Z,22.27
2023-04-24T20:14:06.340Z,17.38
2023-04-24T20:16:33.836Z,22.35
2023-04-24T20:19:01.201Z,19.00
2023-04-24T20:21:28.548Z,16.25
2023-04-24T20:23:55.904Z,16.92
2023-04-24T20:26:23.508Z,15.70
2023-04-24T20:28:51.301Z,13.57
2023-04-24T20:31:19.782Z,15.48
2023-04-24T20:33:47.237Z,16.35
2023-04-24T20:36:14.556Z,16.67
2023-04-24T20:38:41.848Z,15.05
2023-04-24T20:41:10.290Z,13.90
2023-04-24T20:43:37.684Z,14.27
2023-04-24T20:46:05.350Z,15.43
2023-04-24T20:48:32.679Z,12.88
2023-04-24T20:50:59.947Z,12.98
2023-04-24T20:53:27.259Z,10.93
2023-04-24T20:55:54.733Z,10.70
2023-04-24T20:58:23.017Z,9.38
2023-04-24T21:00:51.224Z,12.95
2023-04-24T21:03:19.014Z,10.75
2023-04-24T21:05:46.621Z,10.35
2023-04-24T21:08:14.078Z,15.65
2023-04-24T21:10:41.452Z,14.55
2023-04-24T21:13:09.024Z,10.38
2023-04-24T21:15:36.447Z,11.25
2023-04-24T21:18:04.184Z,9.07
2023-04-24T21:20:31.914Z,11.75
2023-04-24T21:22:59.235Z,9.65
2023-04-24T21:25:26.998Z,10.90
2023-04-24T21:27:54.876Z,10.43
2023-04-24T21:30:22.300Z,10.95
2023-04-24T21:32:49.695Z,10.50
2023-04-24T21:35:17.054Z,8.57
2023-04-24T21:37:44.440Z,8.45
2023-04-24T21:40:12.088Z,10.18
2023-04-24T21:42:39.869Z,8.07
2023-04-24T21:45:07.680Z,9.68
2023-04-24T21:47:35.173Z,7.57
2023-04-24T21:50:02.739Z,8.32
2023-04-24T21:52:29.973Z,9.13
2023-04-24T21:54:57.241Z,7.65
2023-04-24T21:57:24.565Z,6.50
2023-04-24T21:59:52.593Z,8.93
2023-04-24T22:02:20.393Z,7.93
2023-04-24T22:04:47.861Z,8.02
2023-04-24T22:07:16.340Z,9.65
2023-04-24T22:09:43.564Z,8.35
2023-04-24T22:12:10.970Z,9.52
2023-04-24T22:14:38.312Z,6.57
2023-04-24T22:17:05.652Z,7.43
2023-04-24T22:19:32.960Z,6.35
2023-04-24T22:22:00.287Z,8.57
2023-04-24T22:24:28.137Z,6.80
2023-04-24T22:26:55.529Z,8.68
2023-04-24T22:29:22.814Z,6.85
2023-04-24T22:31:50.482Z,6.15
2023-04-24T22:34:18.511Z,7.95
2023-04-24T22:36:46.079Z,6.00
2023-04-24T22:39:15.860Z,7.65
2023-04-24T22:41:43.338Z,5.60
2023-04-24T22:44:13.788Z,5.88
2023-04-24T22:46:41.280Z,6.53
2023-04-24T22:49:09.023Z,6.38
2023-04-24T22:51:36.588Z,6.53
2023-04-24T22:54:04.993Z,7.05
2023-04-24T22:56:33.665Z,7.45
2023-04-24T22:59:01.161Z,6.55
2023-04-24T23:01:29.138Z,5.28
2023-04-24T23:03:56.638Z,8.02
2023-04-24T23:06:24.263Z,6.68
2023-04-24T23:08:51.547Z,7.68
2023-04-24T23:11:19.941Z,7.40
2023-04-24T23:13:47.580Z,5.93
2023-04-24T23:16:14.985Z,7.40
2023-04-24T23:18:42.257Z,6.13
2023-04-24T23:21:09.830Z,5.75
2023-04-24T23:23:37.140Z,6.45
2023-04-24T23:26:04.567Z,6.95
2023-04-24T23:28:31.900Z,6.90
2023-04-24T23:30:59.171Z,3.45
2023-04-24T23:33:26.874Z,5.90
2023-04-24T23:38:49.456Z,5.43
2023-04-24T23:41:17.622Z,6.95
2023-04-24T23:43:45.003Z,5.95
2023-04-24T23:46:12.745Z,6.88
2023-04-24T23:48:40.066Z,6.78
2023-04-24T23:51:07.365Z,7.05
2023-04-24T23:53:34.798Z,5.38
2023-04-24T23:56:02.586Z,5.60
2023-04-24T23:58:30.411Z,3.97
